sensor_id;sensor_type;location;lat;lon;timestamp;P1;durP1;ratioP1;P2;durP2;ratioP2
19869;SDS011;10097;50.862;4.696;2024-03-23T00:55:11;20.70;;;4.37;;
19869;SDS011;10097;50.862;4.696;2024-03-23T00:57:37;17.50;;;5.07;;
19869;SDS011;10097;50.862;4.696;2024-03-23T01:00:03;20.90;;;4.33;;
19869;SDS011;10097;50.862;4.696;2024-03-23T01:02:31;18.30;;;4.13;;
19869;SDS011;10097;50.862;4.696;2024-03-23T01:04:57;19.83;;;4.07;;
19869;SDS011;10097;50.862;4.696;2024-03-23T01:07:23;24.13;;;4.00;;
19869;SDS011;10097;50.862;4.696;2024-03-23T01:09:48;17.50;;;3.77;;
19869;SDS011;10097;50.862;4.696;2024-03-23T01:12:14;19.97;;;4.13;;
19869;SDS011;10097;50.862;4.696;2024-03-23T01:14:40;21.53;;;4.47;;
19869;SDS011;10097;50.862;4.696;2024-03-23T01:17:05;19.40;;;4.63;;
19869;SDS011;10097;50.862;4.696;2024-03-23T01:19:31;19.70;;;4.77;;
19869;SDS011;10097;50.862;4.696;2024-03-23T01:21:56;19.50;;;4.77;;
19869;SDS011;10097;50.862;4.696;2024-03-23T01:24:22;23.80;;;5.43;;
19869;SDS011;10097;50.862;4.696;2024-03-23T01:26:48;23.67;;;5.80;;
19869;SDS011;10097;50.862;4.696;2024-03-23T01:29:13;19.00;;;5.20;;
19869;SDS011;10097;50.862;4.696;2024-03-23T01:31:39;16.40;;;5.23;;
19869;SDS011;10097;50.862;4.696;2024-03-23T01:34:04;17.87;;;4.93;;
19869;SDS011;10097;50.862;4.696;2024-03-23T01:36:30;26.27;;;5.30;;
19869;SDS011;10097;50.862;4.696;2024-03-23T01:38:56;23.13;;;5.87;;
19869;SDS011;10097;50.862;4.696;2024-03-23T01:41:21;23.40;;;5.23;;
19869;SDS011;10097;50.862;4.696;2024-03-23T01:43:49;28.83;;;5.90;;
19869;SDS011;10097;50.862;4.696;2024-03-23T01:46:15;25.90;;;5.53;;
19869;SDS011;10097;50.862;4.696;2024-03-23T01:48:41;20.43;;;5.70;;
19869;SDS011;10097;50.862;4.696;2024-03-23T01:51:07;16.20;;;5.50;;
19869;SDS011;10097;50.862;4.696;2024-03-23T01:53:32;22.40;;;5.00;;
19869;SDS011;10097;50.862;4.696;2024-03-23T01:55:58;21.40;;;5.57;;
19869;SDS011;10097;50.862;4.696;2024-03-23T01:58:24;20.00;;;5.47;;
19869;SDS011;10097;50.862;4.696;2024-03-23T02:00:50;18.33;;;5.03;;
19869;SDS011;10097;50.862;4.696;2024-03-23T02:03:22;22.00;;;5.40;;
19869;SDS011;10097;50.862;4.696;2024-03-23T02:05:52;19.10;;;4.47;;
19869;SDS011;10097;50.862;4.696;2024-03-23T02:08:19;22.20;;;5.00;;
19869;SDS011;10097;50.862;4.696;2024-03-23T02:10:46;14.33;;;4.60;;
19869;SDS011;10097;50.862;4.696;2024-03-23T02:13:15;19.67;;;5.33;;
19869;SDS011;10097;50.862;4.696;2024-03-23T02:15:42;19.60;;;4.97;;
19869;SDS011;10097;50.862;4.696;2024-03-23T02:18:08;22.53;;;5.30;;
19869;SDS011;10097;50.862;4.696;2024-03-23T02:20:34;22.33;;;5.10;;
19869;SDS011;10097;50.862;4.696;2024-03-23T02:23:01;20.43;;;5.07;;
19869;SDS011;10097;50.862;4.696;2024-03-23T02:25:27;22.23;;;4.40;;
19869;SDS011;10097;50.862;4.696;2024-03-23T02:27:52;16.73;;;5.20;;
19869;SDS011;10097;50.862;4.696;2024-03-23T02:30:19;18.70;;;5.03;;
19869;SDS011;10097;50.862;4.696;2024-03-23T02:32:45;15.87;;;4.90;;
19869;SDS011;10097;50.862;4.696;2024-03-23T02:35:11;20.90;;;5.30;;
19869;SDS011;10097;50.862;4.696;2024-03-23T02:37:36;15.00;;;5.17;;
19869;SDS011;10097;50.862;4.696;2024-03-23T02:40:02;21.10;;;5.23;;
19869;SDS011;10097;50.862;4.696;2024-03-23T02:42:28;23.50;;;5.33;;
19869;SDS011;10097;50.862;4.696;2024-03-23T02:44:54;18.87;;;5.53;;
19869;SDS011;10097;50.862;4.696;2024-03-23T02:47:19;16.83;;;5.63;;
19869;SDS011;10097;50.862;4.696;2024-03-23T02:49:45;17.30;;;5.90;;
19869;SDS011;10097;50.862;4.696;2024-03-23T02:52:10;21.60;;;6.27;;
19869;SDS011;10097;50.862;4.696;2024-03-23T02:54:36;20.90;;;6.03;;
19869;SDS011;10097;50.862;4.696;2024-03-23T02:57:02;18.10;;;6.60;;
19869;SDS011;10097;50.862;4.696;2024-03-23T02:59:27;18.30;;;6.93;;
19869;SDS011;10097;50.862;4.696;2024-03-23T03:01:53;23.33;;;6.10;;
19869;SDS011;10097;50.862;4.696;2024-03-23T03:04:19;22.27;;;6.37;;
19869;SDS011;10097;50.862;4.696;2024-03-23T03:06:47;26.57;;;7.40;;
19869;SDS011;10097;50.862;4.696;2024-03-23T03:09:14;18.77;;;7.43;;
19869;SDS011;10097;50.862;4.696;2024-03-23T03:11:40;21.40;;;7.60;;
19869;SDS011;10097;50.862;4.696;2024-03-23T03:14:06;19.40;;;7.90;;
19869;SDS011;10097;50.862;4.696;2024-03-23T03:16:32;21.73;;;8.50;;
19869;SDS011;10097;50.862;4.696;2024-03-23T03:18:58;24.10;;;7.43;;
19869;SDS011;10097;50.862;4.696;2024-03-23T03:21:24;25.03;;;8.00;;
19869;SDS011;10097;50.862;4.696;2024-03-23T03:23:49;26.87;;;8.50;;
19869;SDS011;10097;50.862;4.696;2024-03-23T03:26:16;28.80;;;8.30;;
19869;SDS011;10097;50.862;4.696;2024-03-23T03:28:42;24.50;;;7.73;;
19869;SDS011;10097;50.862;4.696;2024-03-23T03:31:09;30.20;;;8.10;;
19869;SDS011;10097;50.862;4.696;2024-03-23T03:33:34;28.00;;;8.20;;
19869;SDS011;10097;50.862;4.696;2024-03-23T03:36:00;28.70;;;7.73;;
19869;SDS011;10097;50.862;4.696;2024-03-23T03:38:25;24.90;;;7.20;;
19869;SDS011;10097;50.862;4.696;2024-03-23T03:40:51;27.37;;;7.83;;
19869;SDS011;10097;50.862;4.696;2024-03-23T03:43:18;26.73;;;7.60;;
19869;SDS011;10097;50.862;4.696;2024-03-23T03:45:50;24.60;;;7.13;;
19869;SDS011;10097;50.862;4.696;2024-03-23T03:48:20;23.93;;;6.70;;
19869;SDS011;10097;50.862;4.696;2024-03-23T03:50:45;24.80;;;7.43;;
19869;SDS011;10097;50.862;4.696;2024-03-23T03:53:11;27.63;;;6.87;;
19869;SDS011;10097;50.862;4.696;2024-03-23T03:55:36;26.57;;;7.23;;
19869;SDS011;10097;50.862;4.696;2024-03-23T03:58:02;28.10;;;6.60;;
19869;SDS011;10097;50.862;4.696;2024-03-23T04:00:28;27.83;;;7.23;;
19869;SDS011;10097;50.862;4.696;2024-03-23T04:02:54;27.73;;;7.70;;
19869;SDS011;10097;50.862;4.696;2024-03-23T04:05:19;23.40;;;6.90;;
19869;SDS011;10097;50.862;4.696;2024-03-23T04:07:45;28.60;;;7.67;;
19869;SDS011;10097;50.862;4.696;2024-03-23T04:10:10;26.63;;;7.40;;
19869;SDS011;10097;50.862;4.696;2024-03-23T04:12:36;20.60;;;7.60;;
19869;SDS011;10097;50.862;4.696;2024-03-23T04:15:02;30.17;;;9.07;;
19869;SDS011;10097;50.862;4.696;2024-03-23T04:17:30;24.07;;;8.40;;
19869;SDS011;10097;50.862;4.696;2024-03-23T04:19:59;20.50;;;7.67;;
19869;SDS011;10097;50.862;4.696;2024-03-23T04:22:26;26.40;;;8.67;;
19869;SDS011;10097;50.862;4.696;2024-03-23T04:24:58;27.30;;;9.00;;
19869;SDS011;10097;50.862;4.696;2024-03-23T04:27:24;30.33;;;7.97;;
19869;SDS011;10097;50.862;4.696;2024-03-23T04:29:50;22.40;;;9.20;;
19869;SDS011;10097;50.862;4.696;2024-03-23T04:32:16;26.43;;;9.30;;
19869;SDS011;10097;50.862;4.696;2024-03-23T04:34:42;29.63;;;8.77;;
19869;SDS011;10097;50.862;4.696;2024-03-23T04:37:09;28.70;;;9.10;;
19869;SDS011;10097;50.862;4.696;2024-03-23T04:39:35;23.57;;;9.13;;
19869;SDS011;10097;50.862;4.696;2024-03-23T04:42:02;32.23;;;9.60;;
19869;SDS011;10097;50.862;4.696;2024-03-23T04:44:28;31.83;;;9.57;;
19869;SDS011;10097;50.862;4.696;2024-03-23T04:46:54;28.90;;;9.60;;
19869;SDS011;10097;50.862;4.696;2024-03-23T04:49:19;28.70;;;10.10;;
19869;SDS011;10097;50.862;4.696;2024-03-23T04:51:45;35.33;;;11.60;;
19869;SDS011;10097;50.862;4.696;2024-03-23T04:54:14;27.27;;;11.90;;
19869;SDS011;10097;50.862;4.696;2024-03-23T04:56:40;33.83;;;11.97;;
19869;SDS011;10097;50.862;4.696;2024-03-23T04:59:07;27.53;;;11.37;;
19869;SDS011;10097;50.862;4.696;2024-03-23T05:01:32;33.00;;;11.50;;
19869;SDS011;10097;50.862;4.696;2024-03-23T05:03:58;27.37;;;10.83;;
19869;SDS011;10097;50.862;4.696;2024-03-23T05:06:24;27.57;;;11.20;;
19869;SDS011;10097;50.862;4.696;2024-03-23T05:08:50;28.33;;;10.03;;
19869;SDS011;10097;50.862;4.696;2024-03-23T05:11:17;29.70;;;10.40;;
19869;SDS011;10097;50.862;4.696;2024-03-23T05:13:43;28.67;;;10.47;;
19869;SDS011;10097;50.862;4.696;2024-03-23T05:16:08;31.97;;;9.90;;
19869;SDS011;10097;50.862;4.696;2024-03-23T05:18:37;25.67;;;8.77;;
19869;SDS011;10097;50.862;4.696;2024-03-23T05:21:03;36.10;;;9.50;;
19869;SDS011;10097;50.862;4.696;2024-03-23T05:23:29;24.93;;;9.30;;
19869;SDS011;10097;50.862;4.696;2024-03-23T05:25:55;28.17;;;8.40;;
19869;SDS011;10097;50.862;4.696;2024-03-23T05:28:21;22.63;;;8.10;;
19869;SDS011;10097;50.862;4.696;2024-03-23T05:30:53;23.93;;;7.63;;
19869;SDS011;10097;50.862;4.696;2024-03-23T05:33:19;22.93;;;7.57;;
19869;SDS011;10097;50.862;4.696;2024-03-23T05:35:45;25.17;;;8.83;;
19869;SDS011;10097;50.862;4.696;2024-03-23T05:38:12;21.13;;;8.50;;
19869;SDS011;10097;50.862;4.696;2024-03-23T05:40:39;31.17;;;7.87;;
19869;SDS011;10097;50.862;4.696;2024-03-23T05:43:08;22.60;;;8.03;;
19869;SDS011;10097;50.862;4.696;2024-03-23T05:45:34;25.27;;;7.73;;
19869;SDS011;10097;50.862;4.696;2024-03-23T05:48:00;21.20;;;7.80;;
19869;SDS011;10097;50.862;4.696;2024-03-23T05:50:25;22.40;;;7.93;;
19869;SDS011;10097;50.862;4.696;2024-03-23T05:52:51;20.97;;;7.17;;
19869;SDS011;10097;50.862;4.696;2024-03-23T05:55:17;23.13;;;6.90;;
19869;SDS011;10097;50.862;4.696;2024-03-23T05:57:43;25.13;;;8.37;;
19869;SDS011;10097;50.862;4.696;2024-03-23T06:00:09;26.33;;;8.20;;
19869;SDS011;10097;50.862;4.696;2024-03-23T06:02:41;28.87;;;7.33;;
19869;SDS011;10097;50.862;4.696;2024-03-23T06:05:10;25.30;;;7.73;;
19869;SDS011;10097;50.862;4.696;2024-03-23T06:07:37;25.10;;;8.57;;
19869;SDS011;10097;50.862;4.696;2024-03-23T06:10:02;21.90;;;8.17;;
19869;SDS011;10097;50.862;4.696;2024-03-23T06:12:28;26.10;;;7.60;;
19869;SDS011;10097;50.862;4.696;2024-03-23T06:14:54;21.80;;;7.60;;
19869;SDS011;10097;50.862;4.696;2024-03-23T06:17:20;27.93;;;7.77;;
19869;SDS011;10097;50.862;4.696;2024-03-23T06:19:45;23.60;;;7.70;;
19869;SDS011;10097;50.862;4.696;2024-03-23T06:22:11;17.37;;;6.47;;
19869;SDS011;10097;50.862;4.696;2024-03-23T06:24:37;26.27;;;6.97;;
19869;SDS011;10097;50.862;4.696;2024-03-23T06:27:02;20.17;;;6.27;;
19869;SDS011;10097;50.862;4.696;2024-03-23T06:29:29;18.27;;;5.67;;
19869;SDS011;10097;50.862;4.696;2024-03-23T06:31:55;21.00;;;6.30;;
19869;SDS011;10097;50.862;4.696;2024-03-23T06:34:21;26.40;;;6.43;;
19869;SDS011;10097;50.862;4.696;2024-03-23T06:36:47;15.43;;;5.40;;
19869;SDS011;10097;50.862;4.696;2024-03-23T06:39:14;21.67;;;5.47;;
19869;SDS011;10097;50.862;4.696;2024-03-23T06:41:41;18.17;;;4.90;;
19869;SDS011;10097;50.862;4.696;2024-03-23T06:44:07;24.10;;;5.50;;
19869;SDS011;10097;50.862;4.696;2024-03-23T06:46:33;19.30;;;5.00;;
19869;SDS011;10097;50.862;4.696;2024-03-23T06:48:59;18.63;;;4.03;;
19869;SDS011;10097;50.862;4.696;2024-03-23T06:51:25;19.83;;;4.60;;
19869;SDS011;10097;50.862;4.696;2024-03-23T06:53:50;23.17;;;4.63;;
19869;SDS011;10097;50.862;4.696;2024-03-23T06:56:16;18.33;;;5.73;;
19869;SDS011;10097;50.862;4.696;2024-03-23T06:58:42;20.70;;;4.20;;
19869;SDS011;10097;50.862;4.696;2024-03-23T07:01:07;19.23;;;3.77;;
19869;SDS011;10097;50.862;4.696;2024-03-23T07:03:33;15.17;;;3.70;;
19869;SDS011;10097;50.862;4.696;2024-03-23T07:05:58;17.13;;;3.30;;
19869;SDS011;10097;50.862;4.696;2024-03-23T07:08:24;17.63;;;3.83;;
19869;SDS011;10097;50.862;4.696;2024-03-23T07:10:50;16.30;;;3.07;;
19869;SDS011;10097;50.862;4.696;2024-03-23T07:13:15;11.73;;;3.37;;
19869;SDS011;10097;50.862;4.696;2024-03-23T07:15:42;25.13;;;5.43;;
19869;SDS011;10097;50.862;4.696;2024-03-23T07:18:07;15.53;;;3.20;;
19869;SDS011;10097;50.862;4.696;2024-03-23T07:20:33;16.47;;;3.33;;
19869;SDS011;10097;50.862;4.696;2024-03-23T07:22:59;17.00;;;3.23;;
19869;SDS011;10097;50.862;4.696;2024-03-23T07:25:25;16.50;;;3.00;;
19869;SDS011;10097;50.862;4.696;2024-03-23T07:27:53;12.23;;;2.53;;
19869;SDS011;10097;50.862;4.696;2024-03-23T07:30:18;20.37;;;3.70;;
19869;SDS011;10097;50.862;4.696;2024-03-23T07:32:44;13.00;;;2.87;;
19869;SDS011;10097;50.862;4.696;2024-03-23T07:35:10;12.80;;;2.93;;
19869;SDS011;10097;50.862;4.696;2024-03-23T07:37:36;15.93;;;3.13;;
19869;SDS011;10097;50.862;4.696;2024-03-23T07:40:01;16.43;;;3.03;;
19869;SDS011;10097;50.862;4.696;2024-03-23T07:42:27;10.80;;;2.20;;
19869;SDS011;10097;50.862;4.696;2024-03-23T07:44:54;13.63;;;2.50;;
19869;SDS011;10097;50.862;4.696;2024-03-23T07:47:21;14.43;;;2.03;;
19869;SDS011;10097;50.862;4.696;2024-03-23T07:49:47;10.27;;;2.00;;
19869;SDS011;10097;50.862;4.696;2024-03-23T07:52:13;9.77;;;2.17;;
19869;SDS011;10097;50.862;4.696;2024-03-23T07:54:39;9.53;;;1.97;;
19869;SDS011;10097;50.862;4.696;2024-03-23T07:57:04;8.77;;;2.03;;
19869;SDS011;10097;50.862;4.696;2024-03-23T07:59:32;13.27;;;2.57;;
19869;SDS011;10097;50.862;4.696;2024-03-23T08:01:59;12.93;;;2.50;;
19869;SDS011;10097;50.862;4.696;2024-03-23T08:04:25;11.23;;;2.47;;
19869;SDS011;10097;50.862;4.696;2024-03-23T08:06:51;11.03;;;2.10;;
19869;SDS011;10097;50.862;4.696;2024-03-23T08:09:17;13.77;;;2.97;;
19869;SDS011;10097;50.862;4.696;2024-03-23T08:11:43;19.53;;;3.27;;
19869;SDS011;10097;50.862;4.696;2024-03-23T08:14:10;15.20;;;3.20;;
19869;SDS011;10097;50.862;4.696;2024-03-23T08:16:37;21.00;;;3.60;;
19869;SDS011;10097;50.862;4.696;2024-03-23T08:19:03;16.97;;;3.80;;
19869;SDS011;10097;50.862;4.696;2024-03-23T08:21:30;22.83;;;4.60;;
19869;SDS011;10097;50.862;4.696;2024-03-23T08:23:55;14.40;;;3.43;;
19869;SDS011;10097;50.862;4.696;2024-03-23T08:26:21;18.27;;;3.90;;
19869;SDS011;10097;50.862;4.696;2024-03-23T08:28:47;16.37;;;3.07;;
19869;SDS011;10097;50.862;4.696;2024-03-23T08:31:13;13.40;;;3.07;;
19869;SDS011;10097;50.862;4.696;2024-03-23T08:33:41;13.50;;;3.27;;
19869;SDS011;10097;50.862;4.696;2024-03-23T08:36:08;19.20;;;4.03;;
19869;SDS011;10097;50.862;4.696;2024-03-23T08:38:37;15.40;;;3.50;;
19869;SDS011;10097;50.862;4.696;2024-03-23T08:41:07;14.27;;;3.10;;
19869;SDS011;10097;50.862;4.696;2024-03-23T08:43:37;18.97;;;3.30;;
19869;SDS011;10097;50.862;4.696;2024-03-23T08:46:10;16.73;;;2.70;;
19869;SDS011;10097;50.862;4.696;2024-03-23T08:48:38;13.23;;;2.97;;
19869;SDS011;10097;50.862;4.696;2024-03-23T08:51:09;13.13;;;2.70;;
19869;SDS011;10097;50.862;4.696;2024-03-23T08:53:36;15.23;;;2.70;;
19869;SDS011;10097;50.862;4.696;2024-03-23T08:56:02;12.87;;;2.43;;
19869;SDS011;10097;50.862;4.696;2024-03-23T08:58:29;16.37;;;3.20;;
19869;SDS011;10097;50.862;4.696;2024-03-23T09:00:57;13.87;;;2.87;;
19869;SDS011;10097;50.862;4.696;2024-03-23T09:03:28;15.53;;;2.63;;
19869;SDS011;10097;50.862;4.696;2024-03-23T09:05:54;13.97;;;3.13;;
19869;SDS011;10097;50.862;4.696;2024-03-23T09:08:20;10.43;;;2.60;;
19869;SDS011;10097;50.862;4.696;2024-03-23T09:10:47;11.87;;;2.57;;
19869;SDS011;10097;50.862;4.696;2024-03-23T09:13:13;11.53;;;3.00;;
19869;SDS011;10097;50.862;4.696;2024-03-23T09:15:45;15.53;;;3.00;;
19869;SDS011;10097;50.862;4.696;2024-03-23T09:18:12;18.20;;;3.07;;
19869;SDS011;10097;50.862;4.696;2024-03-23T09:20:37;14.53;;;2.30;;
19869;SDS011;10097;50.862;4.696;2024-03-23T09:23:04;13.30;;;2.63;;
19869;SDS011;10097;50.862;4.696;2024-03-23T09:25:29;13.73;;;2.60;;
19869;SDS011;10097;50.862;4.696;2024-03-23T09:27:55;14.10;;;2.63;;
19869;SDS011;10097;50.862;4.696;2024-03-23T09:30:21;15.10;;;2.47;;
19869;SDS011;10097;50.862;4.696;2024-03-23T09:32:46;14.33;;;2.47;;
19869;SDS011;10097;50.862;4.696;2024-03-23T09:35:12;10.37;;;2.50;;
19869;SDS011;10097;50.862;4.696;2024-03-23T09:37:40;11.67;;;2.50;;
19869;SDS011;10097;50.862;4.696;2024-03-23T09:40:09;11.27;;;2.23;;
19869;SDS011;10097;50.862;4.696;2024-03-23T09:42:36;14.10;;;2.30;;
19869;SDS011;10097;50.862;4.696;2024-03-23T09:45:02;10.03;;;1.83;;
19869;SDS011;10097;50.862;4.696;2024-03-23T09:47:30;14.10;;;2.47;;
19869;SDS011;10097;50.862;4.696;2024-03-23T09:49:56;9.37;;;1.73;;
19869;SDS011;10097;50.862;4.696;2024-03-23T09:52:22;13.23;;;2.23;;
19869;SDS011;10097;50.862;4.696;2024-03-23T09:54:48;11.60;;;3.17;;
19869;SDS011;10097;50.862;4.696;2024-03-23T09:57:13;10.63;;;2.13;;
19869;SDS011;10097;50.862;4.696;2024-03-23T09:59:39;10.80;;;2.47;;
19869;SDS011;10097;50.862;4.696;2024-03-23T10:02:05;11.53;;;2.10;;
19869;SDS011;10097;50.862;4.696;2024-03-23T10:04:41;8.77;;;1.70;;
19869;SDS011;10097;50.862;4.696;2024-03-23T10:07:41;12.33;;;2.00;;
19869;SDS011;10097;50.862;4.696;2024-03-23T10:09:59;8.17;;;1.83;;
19869;SDS011;10097;50.862;4.696;2024-03-23T10:12:39;15.07;;;1.97;;
19869;SDS011;10097;50.862;4.696;2024-03-23T10:15:20;9.50;;;2.10;;
19869;SDS011;10097;50.862;4.696;2024-03-23T10:17:49;12.67;;;2.20;;
19869;SDS011;10097;50.862;4.696;2024-03-23T10:20:21;8.47;;;2.07;;
19869;SDS011;10097;50.862;4.696;2024-03-23T10:22:48;15.33;;;2.53;;
19869;SDS011;10097;50.862;4.696;2024-03-23T10:25:15;11.23;;;2.03;;
19869;SDS011;10097;50.862;4.696;2024-03-23T10:27:41;13.63;;;2.50;;
19869;SDS011;10097;50.862;4.696;2024-03-23T10:30:09;8.53;;;1.83;;
19869;SDS011;10097;50.862;4.696;2024-03-23T10:32:41;8.67;;;2.17;;
19869;SDS011;10097;50.862;4.696;2024-03-23T10:35:14;13.03;;;2.50;;
19869;SDS011;10097;50.862;4.696;2024-03-23T10:37:49;6.90;;;1.50;;
19869;SDS011;10097;50.862;4.696;2024-03-23T10:40:16;8.83;;;1.70;;
19869;SDS011;10097;50.862;4.696;2024-03-23T10:42:43;8.57;;;1.77;;
19869;SDS011;10097;50.862;4.696;2024-03-23T10:45:09;9.00;;;2.07;;
19869;SDS011;10097;50.862;4.696;2024-03-23T10:47:36;11.30;;;1.80;;
19869;SDS011;10097;50.862;4.696;2024-03-23T10:50:03;7.17;;;1.70;;
19869;SDS011;10097;50.862;4.696;2024-03-23T10:52:30;8.87;;;2.50;;
19869;SDS011;10097;50.862;4.696;2024-03-23T10:55:00;11.97;;;1.93;;
19869;SDS011;10097;50.862;4.696;2024-03-23T10:57:40;9.83;;;1.70;;
19869;SDS011;10097;50.862;4.696;2024-03-23T11:00:09;8.40;;;1.27;;
19869;SDS011;10097;50.862;4.696;2024-03-23T11:02:35;9.00;;;1.43;;
19869;SDS011;10097;50.862;4.696;2024-03-23T11:05:01;12.90;;;1.97;;
19869;SDS011;10097;50.862;4.696;2024-03-23T11:09:53;8.73;;;1.50;;
19869;SDS011;10097;50.862;4.696;2024-03-23T11:14:51;6.73;;;1.27;;
19869;SDS011;10097;50.862;4.696;2024-03-23T11:17:30;7.93;;;1.83;;
19869;SDS011;10097;50.862;4.696;2024-03-23T11:20:00;8.17;;;1.23;;
19869;SDS011;10097;50.862;4.696;2024-03-23T11:25:21;7.37;;;1.17;;
19869;SDS011;10097;50.862;4.696;2024-03-23T11:27:49;10.43;;;1.80;;
19869;SDS011;10097;50.862;4.696;2024-03-23T11:32:49;9.43;;;1.70;;
19869;SDS011;10097;50.862;4.696;2024-03-23T11:35:31;9.80;;;1.63;;
19869;SDS011;10097;50.862;4.696;2024-03-23T11:38:02;6.60;;;1.30;;
19869;SDS011;10097;50.862;4.696;2024-03-23T11:40:31;10.37;;;1.47;;
19869;SDS011;10097;50.862;4.696;2024-03-23T11:42:59;10.50;;;1.10;;
19869;SDS011;10097;50.862;4.696;2024-03-23T11:45:26;8.67;;;1.13;;
19869;SDS011;10097;50.862;4.696;2024-03-23T11:48:11;8.10;;;1.10;;
19869;SDS011;10097;50.862;4.696;2024-03-23T11:50:41;7.50;;;1.40;;
19869;SDS011;10097;50.862;4.696;2024-03-23T11:53:12;9.53;;;1.40;;
19869;SDS011;10097;50.862;4.696;2024-03-23T11:58:14;4.93;;;0.90;;
19869;SDS011;10097;50.862;4.696;2024-03-23T12:00:41;6.90;;;1.47;;
19869;SDS011;10097;50.862;4.696;2024-03-23T12:03:08;7.50;;;1.40;;
19869;SDS011;10097;50.862;4.696;2024-03-23T12:05:35;9.63;;;1.10;;
19869;SDS011;10097;50.862;4.696;2024-03-23T12:08:21;11.20;;;1.73;;
19869;SDS011;10097;50.862;4.696;2024-03-23T12:11:06;7.60;;;1.40;;
19869;SDS011;10097;50.862;4.696;2024-03-23T12:13:36;8.77;;;1.33;;
19869;SDS011;10097;50.862;4.696;2024-03-23T12:16:12;6.93;;;1.27;;
19869;SDS011;10097;50.862;4.696;2024-03-23T12:18:39;6.30;;;1.03;;
19869;SDS011;10097;50.862;4.696;2024-03-23T12:21:06;10.67;;;1.50;;
19869;SDS011;10097;50.862;4.696;2024-03-23T12:23:33;6.37;;;1.50;;
19869;SDS011;10097;50.862;4.696;2024-03-23T12:25:58;8.03;;;1.40;;
19869;SDS011;10097;50.862;4.696;2024-03-23T12:28:24;9.23;;;1.13;;
19869;SDS011;10097;50.862;4.696;2024-03-23T12:30:50;8.53;;;1.70;;
19869;SDS011;10097;50.862;4.696;2024-03-23T12:36:39;9.93;;;1.30;;
19869;SDS011;10097;50.862;4.696;2024-03-23T12:39:05;6.43;;;1.40;;
19869;SDS011;10097;50.862;4.696;2024-03-23T12:41:31;10.87;;;2.17;;
19869;SDS011;10097;50.862;4.696;2024-03-23T12:43:56;11.03;;;1.60;;
19869;SDS011;10097;50.862;4.696;2024-03-23T12:46:22;12.40;;;2.03;;
19869;SDS011;10097;50.862;4.696;2024-03-23T12:48:48;5.03;;;1.33;;
19869;SDS011;10097;50.862;4.696;2024-03-23T12:51:28;6.00;;;1.07;;
19869;SDS011;10097;50.862;4.696;2024-03-23T12:53:55;9.07;;;1.47;;
19869;SDS011;10097;50.862;4.696;2024-03-23T12:56:20;5.10;;;0.90;;
19869;SDS011;10097;50.862;4.696;2024-03-23T12:58:47;6.60;;;1.20;;
19869;SDS011;10097;50.862;4.696;2024-03-23T13:01:18;6.80;;;1.50;;
19869;SDS011;10097;50.862;4.696;2024-03-23T13:03:48;7.57;;;0.93;;
19869;SDS011;10097;50.862;4.696;2024-03-23T13:06:16;6.70;;;1.00;;
19869;SDS011;10097;50.862;4.696;2024-03-23T13:09:02;9.73;;;1.20;;
19869;SDS011;10097;50.862;4.696;2024-03-23T13:11:30;7.67;;;1.30;;
19869;SDS011;10097;50.862;4.696;2024-03-23T13:13:56;9.77;;;1.57;;
19869;SDS011;10097;50.862;4.696;2024-03-23T13:16:22;9.53;;;1.70;;
19869;SDS011;10097;50.862;4.696;2024-03-23T13:18:47;7.67;;;1.30;;
19869;SDS011;10097;50.862;4.696;2024-03-23T13:21:13;8.70;;;1.10;;
19869;SDS011;10097;50.862;4.696;2024-03-23T13:26:46;8.10;;;1.30;;
19869;SDS011;10097;50.862;4.696;2024-03-23T13:29:12;8.33;;;1.30;;
19869;SDS011;10097;50.862;4.696;2024-03-23T13:31:38;6.83;;;1.23;;
19869;SDS011;10097;50.862;4.696;2024-03-23T13:34:04;6.17;;;0.67;;
19869;SDS011;10097;50.862;4.696;2024-03-23T13:36:29;3.88;;;1.10;;
19869;SDS011;10097;50.862;4.696;2024-03-23T13:38:55;6.45;;;0.95;;
19869;SDS011;10097;50.862;4.696;2024-03-23T13:41:20;4.13;;;0.70;;
19869;SDS011;10097;50.862;4.696;2024-03-23T13:43:46;6.90;;;0.90;;
19869;SDS011;10097;50.862;4.696;2024-03-23T13:46:12;9.30;;;0.90;;
19869;SDS011;10097;50.862;4.696;2024-03-23T13:48:37;8.20;;;1.00;;
19869;SDS011;10097;50.862;4.696;2024-03-23T13:51:03;5.20;;;0.70;;
19869;SDS011;10097;50.862;4.696;2024-03-23T13:53:30;6.93;;;1.17;;
19869;SDS011;10097;50.862;4.696;2024-03-23T13:55:57;6.03;;;0.93;;
19869;SDS011;10097;50.862;4.696;2024-03-23T13:58:23;5.03;;;1.10;;
19869;SDS011;10097;50.862;4.696;2024-03-23T14:00:50;3.97;;;0.97;;
19869;SDS011;10097;50.862;4.696;2024-03-23T14:03:16;7.30;;;0.97;;
19869;SDS011;10097;50.862;4.696;2024-03-23T14:05:45;5.47;;;1.00;;
19869;SDS011;10097;50.862;4.696;2024-03-23T14:08:14;4.40;;;0.70;;
19869;SDS011;10097;50.862;4.696;2024-03-23T14:10:40;6.80;;;0.97;;
19869;SDS011;10097;50.862;4.696;2024-03-23T14:13:06;4.93;;;0.90;;
19869;SDS011;10097;50.862;4.696;2024-03-23T14:15:32;5.87;;;1.00;;
19869;SDS011;10097;50.862;4.696;2024-03-23T14:17:58;7.33;;;1.17;;
19869;SDS011;10097;50.862;4.696;2024-03-23T14:20:24;6.03;;;0.90;;
19869;SDS011;10097;50.862;4.696;2024-03-23T14:22:50;6.93;;;1.10;;
19869;SDS011;10097;50.862;4.696;2024-03-23T14:25:16;4.30;;;0.90;;
19869;SDS011;10097;50.862;4.696;2024-03-23T14:27:46;7.33;;;1.37;;
19869;SDS011;10097;50.862;4.696;2024-03-23T14:30:12;6.30;;;1.03;;
19869;SDS011;10097;50.862;4.696;2024-03-23T14:32:38;6.60;;;1.30;;
19869;SDS011;10097;50.862;4.696;2024-03-23T14:35:04;7.73;;;1.30;;
19869;SDS011;10097;50.862;4.696;2024-03-23T14:37:32;9.17;;;1.33;;
19869;SDS011;10097;50.862;4.696;2024-03-23T14:39:58;7.33;;;1.50;;
19869;SDS011;10097;50.862;4.696;2024-03-23T14:42:24;9.67;;;1.67;;
19869;SDS011;10097;50.862;4.696;2024-03-23T14:44:50;10.87;;;1.07;;
19869;SDS011;10097;50.862;4.696;2024-03-23T14:47:16;8.93;;;1.33;;
19869;SDS011;10097;50.862;4.696;2024-03-23T14:49:43;8.70;;;0.90;;
19869;SDS011;10097;50.862;4.696;2024-03-23T14:52:15;7.63;;;1.30;;
19869;SDS011;10097;50.862;4.696;2024-03-23T14:54:41;13.23;;;1.53;;
19869;SDS011;10097;50.862;4.696;2024-03-23T14:57:07;5.80;;;1.10;;
19869;SDS011;10097;50.862;4.696;2024-03-23T14:59:34;5.27;;;1.40;;
19869;SDS011;10097;50.862;4.696;2024-03-23T15:02:00;8.53;;;1.67;;
19869;SDS011;10097;50.862;4.696;2024-03-23T15:04:26;9.93;;;1.70;;
19869;SDS011;10097;50.862;4.696;2024-03-23T15:06:51;8.70;;;1.40;;
19869;SDS011;10097;50.862;4.696;2024-03-23T15:09:17;8.53;;;1.50;;
19869;SDS011;10097;50.862;4.696;2024-03-23T15:11:43;11.33;;;2.10;;
19869;SDS011;10097;50.862;4.696;2024-03-23T15:14:09;8.50;;;1.60;;
19869;SDS011;10097;50.862;4.696;2024-03-23T15:16:35;9.50;;;1.60;;
19869;SDS011;10097;50.862;4.696;2024-03-23T15:19:01;6.27;;;1.50;;
19869;SDS011;10097;50.862;4.696;2024-03-23T15:21:27;10.10;;;1.57;;
19869;SDS011;10097;50.862;4.696;2024-03-23T15:23:53;6.30;;;1.37;;
19869;SDS011;10097;50.862;4.696;2024-03-23T15:26:18;6.23;;;1.20;;
19869;SDS011;10097;50.862;4.696;2024-03-23T15:28:48;10.87;;;1.70;;
19869;SDS011;10097;50.862;4.696;2024-03-23T15:31:23;7.43;;;1.23;;
19869;SDS011;10097;50.862;4.696;2024-03-23T15:33:49;7.90;;;1.20;;
19869;SDS011;10097;50.862;4.696;2024-03-23T15:36:15;7.07;;;1.47;;
19869;SDS011;10097;50.862;4.696;2024-03-23T15:38:41;7.80;;;1.07;;
19869;SDS011;10097;50.862;4.696;2024-03-23T15:41:08;6.90;;;1.23;;
19869;SDS011;10097;50.862;4.696;2024-03-23T15:43:34;6.47;;;1.10;;
19869;SDS011;10097;50.862;4.696;2024-03-23T15:46:00;12.33;;;1.90;;
19869;SDS011;10097;50.862;4.696;2024-03-23T15:48:28;9.57;;;1.37;;
19869;SDS011;10097;50.862;4.696;2024-03-23T15:50:55;6.17;;;1.20;;